메인 페이지
METAR-TAF:

METAR-TAF

공항 :

톨마초보 국제공항

노보시비르스크, 러시아

위도: 55-01N, 경도: 082-38E, 고도: 111m

현재 날씨관측

예보는 23분 전, 20:30시(UTC)에 발표되었습니다.
6kt
온도 20°C
습도 83%
기압 1001 hPa
시정 10km 이상
1500m 미만 상공 구름 및 적란운 없음

METAR: UNNT 202030Z 10003MPS CAVOK 20/17 Q1001 R07/090070 R16/090070 NOSIG RMK QFE741/0988

시각: 03:53 (20:53 UTC)

예보

예보는 53분 전, 20:00시(UTC)에 발표되었습니다.
예보 대상 시간: 20일 21시부터 21일 21시까지 (UTC)
6kt, 순간 최대 풍속 16kt
시정 10km 이상
고도 5100ft 상공 구름 많음, 적란운.
일시적
20일 21시부터 21일 03시까지 (UTC)
고도 2000ft 상공 구름 많음, 적란운.
뇌우, 약한비
21일 0300시부터 (UTC)
남남동6kt, 순간 최대 풍속 16kt
시정 10km 이상
고도 4000ft 상공 구름 많음, 적란운.
약한소나기
일시적
21일 03시부터 21일 18시까지 (UTC)
남남서16kt, 순간 최대 풍속 35kt
시정: 3100m
고도 1100ft 상공 구름 많음, 적란운.
뇌우, 약한비

TAF: UNNT 202000Z 2021/2121 09003G08MPS 9999 BKN051CB TEMPO 2021/2103 -TSRA BKN020CB FM210300 15003G08MPS 9999 -SHRA BKN040CB TEMPO 2103/2118 21008G18MPS 3100 -TSRA BKN011CB

4,000개 이상의 공항 관측 자료 및 예보 (METAR 및 TAF 보고).

지도상에서 검색 가능한 기상관측소가 노란 점과 빨간 점으로 표시되어 있습니다.

기상관측소 명을 보려면 표시 위로 마우스를 이동하세요.

날씨 관측과 예보를 보려면 클릭하세요.

지도 변경 : 확대하려면 엑스 표시가 있는 녹색 버튼, 축소하려면 빼기 표시가 있는 녹색 버튼, 다음 페이지의 지도를 보려면 녹색 화살표를 클릭하세요.


METAR-TAF: